Terminal Aerodrome Forecast
Issued by NWS Central Illinois

Home | Current Version | Previous Version | Text Only | Print | Product List | Glossary On
Versions: 1 2 3 4 5 6 7 8 9 10 11 12 13 14 15 16 17 18 19 20
000
FTUS43 KILX 301742 AAB
TAFSPI
TAF AMD
KSPI 301742Z 3018/3118 03005KT 6SM SHRA VCTS BKN100CB
     FM302200 36005KT P6SM VCTS SCT030CB BKN150
     FM310300 VRB03KT P6SM SCT030 BKN110
     FM310600 00000KT 3SM BR BKN070
     FM311500 34004KT P6SM BKN035=

USA.gov is the U.S. government's official web portal to all federal, state and local government web resources and services.